Low Head, Tasmania

5:29 AM EST on July 31, 2014 (GMT +1000)
Deviot (ITASMANI93) Elev 56 ft | 41.23 °S, 146.93 °E | Change Station

Current weather conditions updated 1 second ago

Light Rain Showers
Light Showers Rain
54.7 °F
Feels Like 54.7 °F
N
28.9
Wind Variable Wind from NE
Gusts 28.9 mph

Today is forecast to be Cooler than yesterday. Rain and wind.

Today
High -- | Low -- °F
--% Chance of Precip.
Yesterday
High -- | Low -- °F
Precip. -- in
7:21 AM 5:17 PM
Waxing Crescent, 13% visible
Pressure 29.27 in
Visibility 6.2 miles
Clouds Scattered Clouds 1800 ft
Mostly Cloudy 2200 ft
Mostly Cloudy 3100 ft
Dew Point 50 °F
Humidity 85%
Rainfall 20.57 in
Snow Depth Not available.
UV 0 out of 12
Pollen Not available.
Air Quality Not available.
Flu Activity Not available.
SPECI YMLT 301917Z AUTO 33029G39KT 9999 -SHRA SCT018 BKN022 BKN031 12/10 Q0991 RESHRA

More Conditions Fewer Conditions

Pressure 29.27 in
Visibility 6.2 miles
Clouds Scattered Clouds 1800 ft
Mostly Cloudy 2200 ft
Mostly Cloudy 3100 ft
Dew Point 50 °F
Humidity 85%
Rainfall 20.57 in
Snow Depth Not available.
UV 0 out of 12
Pollen Not available.
Air Quality Not available.
Flu Activity Not available.
SPECI YMLT 301917Z AUTO 33029G39KT 9999 -SHRA SCT018 BKN022 BKN031 12/10 Q0991 RESHRA

More Conditions Fewer Conditions

10-Day Weather Forecast

Almanac

Astronomy

Jul. 31, 2014 Rise Set
Actual Time 7:21 AM EST 5:17 PM EST
Civil Twilight 6:52 AM EST 5:46 PM EST
Nautical Twilight 6:18 AM EST 6:19 PM EST
Astronomical Twilight 5:46 AM EST 6:52 PM EST
Moon 9:07 AM EST (7/31) 9:27 PM EST (7/31)
Length of Visible Light 10h 54m
Length of Day
9h 55m
Tomorrow will be 1m 59s longer.
Waxing Crescent, 13% of the Moon is Illuminated
Jul 30
Waxing Crescent
Aug 3
First Quarter
Aug 10
Full
Aug 17
Last Quarter
Aug 25
New

Yesterday's Extremes

Country Highs Country Lows

Community

WunderPhotos

Upload Photos

1,739,162 photos uploaded!

WunderBlogs® & News

Nearby

Snow Depth

Not available.

Earthquake Activity

City Distance Mag. Time & Date
No recent earthquake activity has been reported nearby.
Minimum magnitude displayed is 2.5.

Coastal Water Temperatures

Place Temperature
No Stations Reporting

Nearby Weather Stations

Station Location Temp. Dew Point Humidity Wind Precip. Elev Updated Type
Deviot, Deviot 54.7 °F 50 °F 85% NE  at  28.9 mph 2.13 in / hr 56 ft 5:29 AM EST Rapid Fire
Gravelly Beach, Gravelly Beach 54.4 °F 54 °F 97% NW  at  8.0 mph 0.00 in / hr 66 ft 5:25 AM EST Normal
Glengarry 54.3 °F 52 °F 89% NW  at  10.9 mph 0.00 in / hr 256 ft 5:28 AM EST Normal
Swan Bay, Swan Bay 55.2 °F 52 °F 89% West  at  13.0 mph 0.00 in / hr 95 ft 5:00 AM EST Normal
Rosevears, Legana 53.8 °F 48 °F 81% North  at  17.4 mph 1.61 in / hr 75 ft 5:29 AM EST Rapid Fire

Show More Stations Show Fewer Stations